Date,TemperatureHighF,TemperatureAvgF,TemperatureLowF,DewpointHighF,DewpointAvgF,DewpointLowF,HumidityHigh,HumidityAvg,HumidityLow,PressureMaxIn,PressureMinIn,WindSpeedMaxMPH,WindSpeedAvgMPH,GustSpeedMaxMPH,PrecipitationSumIn
2013-8-1,94,83,73,-100,-100,-100,0,0,100,0.00,40.00,0,-999,0,0.00
2013-8-2,98,84,70,-100,-100,-100,0,0,100,0.00,40.00,0,-999,0,0.00
2013-8-3,94,82,73,-100,-100,-100,0,0,100,0.00,40.00,0,-999,0,0.00
2013-8-4,96,83,72,-100,-100,-100,0,0,100,0.00,40.00,0,-999,0,0.00
2013-8-5,98,82,73,-100,-100,-100,0,0,100,0.00,40.00,0,-999,0,0.00
2013-8-6,98,83,73,-100,-100,-100,0,0,100,0.00,40.00,0,-999,0,0.00
2013-8-7,100,85,74,-100,-100,-100,0,0,100,0.00,40.00,0,-999,0,0.00
2013-8-8,100,82,71,-100,-100,-100,0,0,100,0.00,40.00,0,-999,0,0.00
2013-8-9,98,84,74,-100,-100,-100,0,0,100,0.00,40.00,0,-999,0,0.00
2013-8-10,87,79,73,-100,-100,-100,0,0,100,0.00,40.00,0,-999,0,0.00
2013-8-11,93,80,71,-100,-100,-100,0,0,100,0.00,40.00,0,-999,0,0.00
2013-8-12,87,77,72,-100,-100,-100,0,0,100,0.00,40.00,0,-999,0,0.00
2013-8-13,94,79,71,-100,-100,-100,0,0,100,0.00,40.00,0,-999,0,0.00
2013-8-14,87,76,70,-100,-100,-100,0,0,100,0.00,40.00,0,-999,0,0.00
2013-8-15,87,74,65,-100,-100,-100,0,0,100,0.00,40.00,0,-999,0,0.00
2013-8-16,88,77,65,-100,-100,-100,0,0,100,0.00,40.00,0,-999,0,0.00
2013-8-17,89,76,63,-100,-100,-100,0,0,100,0.00,40.00,0,-999,0,0.00
2013-8-18,91,78,66,-100,-100,-100,0,0,100,0.00,40.00,0,-999,0,0.00
2013-8-19,89,74,65,-100,-100,-100,0,0,100,0.00,40.00,0,-999,0,0.00
2013-8-20,90,76,66,-100,-100,-100,0,0,100,0.00,40.00,0,-999,0,0.00
2013-8-21,85,75,70,-100,-100,-100,0,0,100,0.00,40.00,0,-999,0,0.00
2013-8-22,95,83,71,-100,-100,-100,0,0,100,0.00,40.00,0,-999,0,0.00
2013-8-23,94,81,71,-100,-100,-100,0,0,100,0.00,40.00,0,-999,0,0.00
2013-8-24,92,80,70,-100,-100,-100,0,0,100,0.00,40.00,0,-999,0,0.00
2013-8-25,90,78,69,-100,-100,-100,0,0,100,0.00,40.00,0,-999,0,0.00
2013-8-26,89,74,70,-100,-100,-100,0,0,100,0.00,40.00,0,-999,0,0.00
2013-8-27,87,74,69,-100,-100,-100,0,0,100,0.00,40.00,0,-999,0,0.00
2013-8-28,94,86,72,-100,-100,-100,0,0,100,0.00,40.00,0,-999,0,0.00
2013-8-29,97,76,67,-100,-100,-100,0,0,100,0.00,40.00,0,-999,0,0.00
2013-8-30,94,81,68,-100,-100,-100,0,0,100,0.00,40.00,0,-999,0,0.00
2013-8-31,98,83,68,-100,-100,-100,0,0,100,0.00,40.00,0,-999,0,0.00